This is the latest recevied weather packets stored in our database for station/object OH2TH. If no packets are shown the sender has not sent any weather packets the latest 10 day(s).
| Time | Temp. | Humidity | Pressure | Rain* | Wind** | Luminosity | Snow |
|---|---|---|---|---|---|---|---|
| 1788475501 | 7.78° C | 97% | 1000 hPa | - | - | - | - |
| 1788472803 | 7.78° C | 95% | 1000 hPa | - | - | - | - |
| 1788471902 | 8.89° C | 95% | 1000 hPa | - | - | - | - |
| 1788471000 | 8.89° C | 95% | 1000 hPa | - | - | - | - |
| 1788470104 | 8.89° C | 94% | 1000 hPa | - | - | - | - |
| 1788469203 | 8.89° C | 94% | 1000 hPa | - | - | - | - |
| 1788467401 | 10° C | 91% | 1000 hPa | - | - | - | - |
| 1788465604 | 10.56° C | 88% | 1000 hPa | - | - | - | - |
| 1788449401 | 16.67° C | 63% | 1000 hPa | - | - | - | - |
| 1788445800 | 17.78° C | 65% | 1000 hPa | - | - | - | - |
| 1788443105 | 18.89° C | 63% | 1000 hPa | - | - | - | - |
| 1788442204 | 18.89° C | 60% | 1000 hPa | - | - | - | - |
| 1788434103 | 20° C | 56% | 1000 hPa | - | - | - | - |
| 1788433203 | 19.44° C | 51% | 1000 hPa | - | - | - | - |
| 1788431402 | 19.44° C | 51% | 1000 hPa | - | - | - | - |
| 1788430502 | 19.44° C | 53% | 1000 hPa | - | - | - | - |
| 1788429602 | 18.33° C | 53% | 1000 hPa | - | - | - | - |
| 1788428702 | 18.33° C | 59% | 1000 hPa | - | - | - | - |
| 1788427802 | 17.78° C | 56% | 1000 hPa | - | - | - | - |
| 1788426902 | 17.78° C | 64% | 1000 hPa | - | - | - | - |
| 1788424201 | 18.33° C | 60% | 1000 hPa | - | - | - | - |
| 1788423301 | 18.33° C | 58% | 1000 hPa | - | - | - | - |
| 1788422401 | 17.78° C | 61% | 1000 hPa | - | - | - | - |
| 1788420600 | 17.78° C | 67% | 1000 hPa | - | - | - | - |
| 1788419705 | 16.67° C | 71% | 1000 hPa | - | - | - | - |
* Rain since midnight (hover to see other rain measurements)
** Current wind speed in m/s (hover to see current wind gust speed)